Kittredge, Colorado
Current Conditions -  °F | °C
As of 5:47 AM on Friday 28 Nov 2014 (Local Time) from KBJC Reporting Station
Few Clouds Few Clouds  
Wind Chill: 55°   Ceiling: Unl
Heat Index: 55°   Visibility: 30mi
Dew Point:   Wind: 0mph
Humidity: 15%   Direction: NA
Pressure: 29.97"   Gusts: NA
Location:  39.66°N, 105.3°W
Report Text: KBJC 281247Z 00000KT 30SM FEW120 13/M13 A2997
Loading
Personal Weather Stations






























Interactive Weather Map New forecast layout! Learn more

10-Day Weather Forecast

Advertisements
Track Severe Weather on mobile